Time;durP1;ratioP1;P1;durP2;ratioP2;P2;SDS_P1;SDS_P2;PMS_P1;PMS_P2;Temp;Humidity;BMP_temperature;BMP_pressure;BME280_temperature;BME280_humidity;BME280_pressure;Samples;Min_cycle;Max_cycle;Signal;HPM_P1;HPM_P2
2022/09/24 00:00:00;;;;;;;1.20;0.80;;;;;;;;;;1848631;77;26316;-59
2022/09/24 00:02:28;;;;;;;1.95;0.70;;;;;;;;;;1846612;77;26328;-60
2022/09/24 00:04:55;;;;;;;0.70;0.70;;;;;;;;;;1848480;77;27325;-59
2022/09/24 00:07:22;;;;;;;0.80;0.80;;;;;;;;;;1851426;77;26317;-57
2022/09/24 00:09:50;;;;;;;1.22;0.80;;;;;;;;;;1848581;77;26321;-59
2022/09/24 00:12:17;;;;;;;0.70;0.70;;;;;;;;;;1847155;77;26246;-57
2022/09/24 00:14:45;;;;;;;0.65;0.65;;;;;;;;;;1849810;77;26274;-60
2022/09/24 00:17:12;;;;;;;0.80;0.80;;;;;;;;;;1849918;77;27374;-60
2022/09/24 00:19:39;;;;;;;0.68;0.68;;;;;;;;;;1847954;77;26746;-59
2022/09/24 00:22:06;;;;;;;0.82;0.82;;;;;;;;;;1848199;77;26258;-58
2022/09/24 00:27:19;;;;;;;0.70;0.70;;;;;;;;;;1848381;77;26544;-58
2022/09/24 00:29:46;;;;;;;0.80;0.80;;;;;;;;;;1847068;77;26258;-58
2022/09/24 00:32:14;;;;;;;0.80;0.80;;;;;;;;;;1848400;77;26344;-60
2022/09/24 00:34:42;;;;;;;0.70;0.70;;;;;;;;;;1850050;77;26714;-56
2022/09/24 00:37:09;;;;;;;0.72;0.70;;;;;;;;;;1848396;77;26302;-55
2022/09/24 00:39:38;;;;;;;0.70;0.70;;;;;;;;;;1848596;77;26270;-59
2022/09/24 00:42:05;;;;;;;1.47;0.88;;;;;;;;;;1849777;77;26352;-57
2022/09/24 00:44:40;;;;;;;0.80;0.80;;;;;;;;;;1847389;77;26740;-57
2022/09/24 00:47:25;;;;;;;2.72;0.70;;;;;;;;;;1848528;77;26279;-56
2022/09/24 00:49:54;;;;;;;0.80;0.80;;;;;;;;;;1859474;76;26374;-59
2022/09/24 00:52:21;;;;;;;2.60;1.25;;;;;;;;;;1851427;77;26317;-57
2022/09/24 00:54:49;;;;;;;1.37;0.70;;;;;;;;;;1851190;77;26694;-59
2022/09/24 00:57:16;;;;;;;0.68;0.68;;;;;;;;;;1851769;76;26252;-58
2022/09/24 00:59:44;;;;;;;0.70;0.70;;;;;;;;;;1858355;76;26259;-56
2022/09/24 01:02:11;;;;;;;0.70;0.70;;;;;;;;;;1857084;77;26678;-56
2022/09/24 01:04:39;;;;;;;1.55;0.90;;;;;;;;;;1859864;77;26225;-61
2022/09/24 01:07:06;;;;;;;1.05;0.80;;;;;;;;;;1859930;76;26346;-58
2022/09/24 01:09:33;;;;;;;0.70;0.70;;;;;;;;;;1855519;77;26259;-59
2022/09/24 01:12:08;;;;;;;0.60;0.60;;;;;;;;;;1851501;77;26250;-58
2022/09/24 01:14:38;;;;;;;0.80;0.80;;;;;;;;;;1851493;77;26793;-60
2022/09/24 01:17:09;;;;;;;0.68;0.68;;;;;;;;;;1853334;76;26245;-59
2022/09/24 01:19:55;;;;;;;0.80;0.80;;;;;;;;;;1844472;76;26246;-56
2022/09/24 01:22:23;;;;;;;0.70;0.70;;;;;;;;;;1861526;77;26269;-57
2022/09/24 01:24:53;;;;;;;1.30;0.65;;;;;;;;;;1851605;76;26325;-58
2022/09/24 01:27:22;;;;;;;0.57;0.57;;;;;;;;;;1860235;76;27300;-57
2022/09/24 01:30:00;;;;;;;0.70;0.70;;;;;;;;;;1848407;76;26691;-55
2022/09/24 01:32:32;;;;;;;2.08;0.72;;;;;;;;;;1836777;77;26285;-59
2022/09/24 01:35:00;;;;;;;0.70;0.70;;;;;;;;;;1852171;76;26830;-53
2022/09/24 01:37:30;;;;;;;0.70;0.65;;;;;;;;;;1843726;76;26699;-56
2022/09/24 01:39:58;;;;;;;2.45;0.80;;;;;;;;;;1850922;76;26257;-60
2022/09/24 01:42:27;;;;;;;0.60;0.60;;;;;;;;;;1853808;76;26698;-56
2022/09/24 01:44:57;;;;;;;1.00;1.00;;;;;;;;;;1858471;76;26813;-58
2022/09/24 01:47:38;;;;;;;0.70;0.70;;;;;;;;;;1860528;76;26358;-57
2022/09/24 01:50:07;;;;;;;0.60;0.60;;;;;;;;;;1848339;77;26299;-58
2022/09/24 01:52:36;;;;;;;0.70;0.70;;;;;;;;;;1853891;76;26262;-58
2022/09/24 01:55:06;;;;;;;0.70;0.70;;;;;;;;;;1840344;76;26642;-62
2022/09/24 01:57:40;;;;;;;0.70;0.70;;;;;;;;;;1854589;76;26230;-57
2022/09/24 02:00:09;;;;;;;0.68;0.68;;;;;;;;;;1838915;77;26257;-56
2022/09/24 02:02:39;;;;;;;2.27;0.65;;;;;;;;;;1841971;76;26261;-58
2022/09/24 02:05:14;;;;;;;1.85;0.90;;;;;;;;;;1843171;76;27430;-57
2022/09/24 02:07:58;;;;;;;0.82;0.70;;;;;;;;;;1841311;77;26257;-55
2022/09/24 02:10:26;;;;;;;1.15;0.70;;;;;;;;;;1841875;77;26242;-59
2022/09/24 02:12:55;;;;;;;0.72;0.72;;;;;;;;;;1843372;77;26261;-61
2022/09/24 02:15:24;;;;;;;0.70;0.70;;;;;;;;;;1841563;77;26292;-60
2022/09/24 02:17:53;;;;;;;0.50;0.50;;;;;;;;;;1840786;76;26789;-59
2022/09/24 02:20:21;;;;;;;1.70;0.75;;;;;;;;;;1837164;76;26742;-55
2022/09/24 02:22:49;;;;;;;0.70;0.70;;;;;;;;;;1838358;77;26258;-58
2022/09/24 02:25:21;;;;;;;0.60;0.60;;;;;;;;;;1840931;77;26733;-59
2022/09/24 02:27:48;;;;;;;1.12;0.70;;;;;;;;;;1840607;76;26789;-54
2022/09/24 02:30:16;;;;;;;0.70;0.70;;;;;;;;;;1836547;77;26786;-58
2022/09/24 02:32:44;;;;;;;0.60;0.60;;;;;;;;;;1845546;77;26229;-58
2022/09/24 02:35:12;;;;;;;0.55;0.55;;;;;;;;;;1839402;77;26347;-57
2022/09/24 02:37:43;;;;;;;0.78;0.62;;;;;;;;;;1853317;76;26264;-58
2022/09/24 02:40:12;;;;;;;0.72;0.72;;;;;;;;;;1837157;77;26333;-52
2022/09/24 02:42:41;;;;;;;0.70;0.70;;;;;;;;;;1840544;77;26322;-59
2022/09/24 02:45:09;;;;;;;0.70;0.70;;;;;;;;;;1840419;77;26284;-62
2022/09/24 02:47:37;;;;;;;0.72;0.60;;;;;;;;;;1837001;77;27390;-59
2022/09/24 02:50:04;;;;;;;0.60;0.60;;;;;;;;;;1854391;76;26286;-62
2022/09/24 02:52:32;;;;;;;0.70;0.70;;;;;;;;;;1859245;76;26250;-58
2022/09/24 02:54:59;;;;;;;1.98;0.65;;;;;;;;;;1858554;76;26243;-56
2022/09/24 02:57:26;;;;;;;0.60;0.60;;;;;;;;;;1854548;77;26553;-58
2022/09/24 02:59:54;;;;;;;0.90;0.70;;;;;;;;;;1855809;77;26335;-57
2022/09/24 03:02:21;;;;;;;1.00;0.60;;;;;;;;;;1855303;77;26333;-53
2022/09/24 03:04:49;;;;;;;0.70;0.70;;;;;;;;;;1854312;77;26575;-54
2022/09/24 03:07:17;;;;;;;0.60;0.60;;;;;;;;;;1870211;76;26267;-55
2022/09/24 03:09:44;;;;;;;0.65;0.65;;;;;;;;;;1854663;77;26746;-57
2022/09/24 03:12:11;;;;;;;0.60;0.60;;;;;;;;;;1858781;77;26261;-58
2022/09/24 03:14:38;;;;;;;0.70;0.70;;;;;;;;;;1856085;76;26320;-60
2022/09/24 03:17:06;;;;;;;0.68;0.68;;;;;;;;;;1852640;76;26264;-55
2022/09/24 03:19:33;;;;;;;0.70;0.60;;;;;;;;;;1854053;76;26667;-55
2022/09/24 03:22:00;;;;;;;0.60;0.60;;;;;;;;;;1855018;77;26328;-52
2022/09/24 03:24:27;;;;;;;0.50;0.50;;;;;;;;;;1858070;77;26338;-58
2022/09/24 03:26:55;;;;;;;0.53;0.53;;;;;;;;;;1851873;76;26243;-61
2022/09/24 03:30:58;;;;;;;0.60;0.60;;;;;;;;;;1845704;77;26245;-56
2022/09/24 03:31:51;;;;;;;0.55;0.55;;;;;;;;;;1840498;77;26308;-58
2022/09/24 03:34:18;;;;;;;0.60;0.60;;;;;;;;;;1842290;77;26298;-58
2022/09/24 03:36:45;;;;;;;0.60;0.60;;;;;;;;;;1841611;77;26241;-56
2022/09/24 03:39:13;;;;;;;0.60;0.60;;;;;;;;;;1842256;77;26245;-57
2022/09/24 03:41:40;;;;;;;0.60;0.57;;;;;;;;;;1849944;77;26227;-59
2022/09/24 03:44:07;;;;;;;0.68;0.50;;;;;;;;;;1852219;77;26263;-56
2022/09/24 03:46:34;;;;;;;1.65;0.53;;;;;;;;;;1853424;77;26328;-58
2022/09/24 03:49:02;;;;;;;0.50;0.50;;;;;;;;;;1853024;76;26315;-56
2022/09/24 03:51:29;;;;;;;0.50;0.50;;;;;;;;;;1821916;78;26248;-56
2022/09/24 03:53:56;;;;;;;0.90;0.60;;;;;;;;;;1817698;78;26730;-58
2022/09/24 03:56:24;;;;;;;0.50;0.50;;;;;;;;;;1810210;78;26673;-57
2022/09/24 03:58:51;;;;;;;0.60;0.60;;;;;;;;;;1806473;78;27287;-61
2022/09/24 04:01:19;;;;;;;0.50;0.50;;;;;;;;;;1818709;78;26715;-56
2022/09/24 04:03:47;;;;;;;1.50;0.50;;;;;;;;;;1806812;78;26327;-59
2022/09/24 04:06:15;;;;;;;0.53;0.53;;;;;;;;;;1810942;78;26361;-58
2022/09/24 04:08:42;;;;;;;0.60;0.60;;;;;;;;;;1815142;78;26290;-57
2022/09/24 04:11:09;;;;;;;0.80;0.60;;;;;;;;;;1815431;78;27462;-59
2022/09/24 04:13:37;;;;;;;0.60;0.60;;;;;;;;;;1815915;77;26814;-60
2022/09/24 04:16:04;;;;;;;0.50;0.50;;;;;;;;;;1827647;78;26790;-55
2022/09/24 04:18:31;;;;;;;0.60;0.60;;;;;;;;;;1813500;78;26255;-55
2022/09/24 04:20:59;;;;;;;1.27;0.50;;;;;;;;;;1812621;78;26368;-56
2022/09/24 04:23:30;;;;;;;0.45;0.45;;;;;;;;;;1817941;78;26315;-61
2022/09/24 04:25:56;;;;;;;0.50;0.50;;;;;;;;;;1802119;78;26290;-59
2022/09/24 04:28:24;;;;;;;0.50;0.50;;;;;;;;;;1815393;77;26253;-59
2022/09/24 04:30:51;;;;;;;0.50;0.50;;;;;;;;;;1817738;78;26868;-61
2022/09/24 04:33:18;;;;;;;0.68;0.62;;;;;;;;;;1799575;79;26726;-57
2022/09/24 04:35:45;;;;;;;0.60;0.60;;;;;;;;;;1800001;78;27325;-59
2022/09/24 04:38:13;;;;;;;0.50;0.50;;;;;;;;;;1812668;78;26566;-54
2022/09/24 04:40:40;;;;;;;0.50;0.50;;;;;;;;;;1799385;79;26288;-57
2022/09/24 04:43:07;;;;;;;0.50;0.50;;;;;;;;;;1808765;78;26281;-59
2022/09/24 04:45:34;;;;;;;0.50;0.50;;;;;;;;;;1820577;78;26255;-55
2022/09/24 04:48:02;;;;;;;0.60;0.60;;;;;;;;;;1823337;78;26251;-57
2022/09/24 04:50:33;;;;;;;0.50;0.50;;;;;;;;;;1836345;76;26274;-60
2022/09/24 04:53:01;;;;;;;0.60;0.60;;;;;;;;;;1855117;75;26335;-57
2022/09/24 04:55:28;;;;;;;0.57;0.57;;;;;;;;;;1853354;76;26331;-59
2022/09/24 04:57:56;;;;;;;0.50;0.50;;;;;;;;;;1846680;76;26771;-58
2022/09/24 05:00:24;;;;;;;0.60;0.60;;;;;;;;;;1855505;76;26237;-56
2022/09/24 05:02:58;;;;;;;1.20;0.60;;;;;;;;;;1862091;76;26795;-59
2022/09/24 05:05:26;;;;;;;1.22;0.60;;;;;;;;;;1875082;76;26262;-55
2022/09/24 05:07:55;;;;;;;1.17;0.50;;;;;;;;;;1857962;76;26279;-61
2022/09/24 05:10:23;;;;;;;0.50;0.50;;;;;;;;;;1845574;77;26683;-55
2022/09/24 05:12:50;;;;;;;1.30;0.50;;;;;;;;;;1846520;77;27407;-57
2022/09/24 05:15:20;;;;;;;0.60;0.60;;;;;;;;;;1844647;77;26256;-56
2022/09/24 05:17:48;;;;;;;0.60;0.60;;;;;;;;;;1848111;77;26323;-53
2022/09/24 05:20:18;;;;;;;0.33;0.33;;;;;;;;;;1852196;76;26310;-57
2022/09/24 05:22:48;;;;;;;0.62;0.62;;;;;;;;;;1861836;76;26334;-56
2022/09/24 05:25:16;;;;;;;0.53;0.50;;;;;;;;;;1861255;76;26862;-58
2022/09/24 05:27:45;;;;;;;0.50;0.50;;;;;;;;;;1879055;75;26242;-58
2022/09/24 05:30:12;;;;;;;0.53;0.53;;;;;;;;;;1854858;74;26269;-59
2022/09/24 05:32:40;;;;;;;0.50;0.50;;;;;;;;;;1848439;76;25677;-59
2022/09/24 05:35:08;;;;;;;0.50;0.50;;;;;;;;;;1850673;76;26796;-60
2022/09/24 05:37:36;;;;;;;0.65;0.65;;;;;;;;;;1844699;76;26225;-58
2022/09/24 05:42:50;;;;;;;0.50;0.50;;;;;;;;;;1855187;77;27232;-58
2022/09/24 05:45:18;;;;;;;0.50;0.50;;;;;;;;;;1858185;76;26239;-57
2022/09/24 05:47:45;;;;;;;0.60;0.60;;;;;;;;;;1854985;76;26738;-57
2022/09/24 05:50:13;;;;;;;4.53;0.70;;;;;;;;;;1858649;76;26306;-59
2022/09/24 05:52:41;;;;;;;0.57;0.55;;;;;;;;;;1843211;76;26796;-57
2022/09/24 05:55:09;;;;;;;0.80;0.68;;;;;;;;;;1835307;77;26296;-59
2022/09/24 05:57:37;;;;;;;0.70;0.60;;;;;;;;;;1859910;76;26768;-60
2022/09/24 06:00:05;;;;;;;0.60;0.60;;;;;;;;;;1849237;76;26298;-58
2022/09/24 06:02:33;;;;;;;0.70;0.70;;;;;;;;;;1852492;76;26239;-59
2022/09/24 06:05:00;;;;;;;1.95;0.65;;;;;;;;;;1840504;76;27628;-57
2022/09/24 06:07:27;;;;;;;1.00;0.60;;;;;;;;;;1834420;76;26244;-59
2022/09/24 06:09:57;;;;;;;1.17;0.95;;;;;;;;;;1834862;76;26305;-59
2022/09/24 06:12:23;;;;;;;0.47;0.47;;;;;;;;;;1835594;77;26818;-58
2022/09/24 06:14:52;;;;;;;0.60;0.60;;;;;;;;;;1831157;77;26786;-59
2022/09/24 06:17:20;;;;;;;1.92;0.90;;;;;;;;;;1834895;76;26707;-62
2022/09/24 06:19:48;;;;;;;1.00;0.62;;;;;;;;;;1830937;76;26839;-59
2022/09/24 06:22:15;;;;;;;1.57;0.78;;;;;;;;;;1830551;76;26904;-60
2022/09/24 06:24:42;;;;;;;0.95;0.50;;;;;;;;;;1832597;76;26338;-57
2022/09/24 06:27:10;;;;;;;1.80;0.60;;;;;;;;;;1833496;76;26263;-56
2022/09/24 06:29:37;;;;;;;0.35;0.35;;;;;;;;;;1835457;76;26243;-61
2022/09/24 06:32:04;;;;;;;1.05;0.60;;;;;;;;;;1845624;76;26314;-56
2022/09/24 06:34:31;;;;;;;0.70;0.70;;;;;;;;;;1839764;76;26309;-60
2022/09/24 06:36:59;;;;;;;0.50;0.50;;;;;;;;;;1841254;76;26743;-56
2022/09/24 06:39:26;;;;;;;1.95;0.60;;;;;;;;;;1834371;76;26271;-56
2022/09/24 06:41:54;;;;;;;1.10;0.50;;;;;;;;;;1843352;76;26311;-61
2022/09/24 06:44:21;;;;;;;0.55;0.55;;;;;;;;;;1838387;76;26362;-61
2022/09/24 06:46:48;;;;;;;0.50;0.50;;;;;;;;;;1840726;76;26357;-59
2022/09/24 06:49:15;;;;;;;1.35;0.50;;;;;;;;;;1845466;77;26250;-60
2022/09/24 06:51:43;;;;;;;0.60;0.60;;;;;;;;;;1850599;76;26607;-58
2022/09/24 06:54:10;;;;;;;0.50;0.50;;;;;;;;;;1848728;76;26274;-58
2022/09/24 06:56:37;;;;;;;0.60;0.60;;;;;;;;;;1848406;77;27539;-60
2022/09/24 06:59:07;;;;;;;0.82;0.50;;;;;;;;;;1849946;76;27139;-59
2022/09/24 07:01:34;;;;;;;2.98;0.60;;;;;;;;;;1854530;76;26340;-53
2022/09/24 07:04:01;;;;;;;0.50;0.50;;;;;;;;;;1859996;76;25676;-61
2022/09/24 07:07:28;;;;;;;0.70;0.60;;;;;;;;;;1860551;76;26277;-61
2022/09/24 07:08:57;;;;;;;1.10;0.60;;;;;;;;;;1844807;76;26285;-57
2022/09/24 07:11:25;;;;;;;0.50;0.50;;;;;;;;;;1853984;75;25512;-61
2022/09/24 07:13:52;;;;;;;0.47;0.47;;;;;;;;;;1853073;76;26694;-59
2022/09/24 07:16:20;;;;;;;0.40;0.40;;;;;;;;;;1852072;76;26447;-59
2022/09/24 07:18:47;;;;;;;2.05;0.50;;;;;;;;;;1853001;76;26251;-60
2022/09/24 07:21:14;;;;;;;1.85;0.60;;;;;;;;;;1851008;77;26258;-57
2022/09/24 07:23:42;;;;;;;2.60;0.78;;;;;;;;;;1860385;75;26292;-58
2022/09/24 07:26:09;;;;;;;5.97;0.78;;;;;;;;;;1855479;76;26269;-55
2022/09/24 07:28:36;;;;;;;6.55;0.90;;;;;;;;;;1843114;76;26330;-60
2022/09/24 07:31:03;;;;;;;3.45;1.00;;;;;;;;;;1854240;75;26646;-57
2022/09/24 07:33:31;;;;;;;4.15;0.98;;;;;;;;;;1847901;76;26264;-57
2022/09/24 07:35:59;;;;;;;3.87;0.95;;;;;;;;;;1840444;75;26248;-57
2022/09/24 07:38:26;;;;;;;6.12;1.22;;;;;;;;;;1832430;77;26712;-60
2022/09/24 07:40:56;;;;;;;2.45;1.00;;;;;;;;;;1859811;75;26251;-57
2022/09/24 07:43:24;;;;;;;5.80;1.00;;;;;;;;;;1865940;75;27346;-59
2022/09/24 07:45:54;;;;;;;2.55;0.80;;;;;;;;;;1857757;76;26254;-54
2022/09/24 07:48:21;;;;;;;5.70;1.17;;;;;;;;;;1858085;76;26259;-56
2022/09/24 07:50:50;;;;;;;8.25;1.00;;;;;;;;;;1856504;76;26317;-57
2022/09/24 07:53:17;;;;;;;2.65;0.93;;;;;;;;;;1855152;76;26278;-57
2022/09/24 07:55:44;;;;;;;3.62;0.90;;;;;;;;;;1852861;77;26339;-58
2022/09/24 07:58:12;;;;;;;4.62;1.10;;;;;;;;;;1863316;76;26276;-57
2022/09/24 08:00:40;;;;;;;1.37;0.80;;;;;;;;;;1860804;77;26688;-61
2022/09/24 08:03:07;;;;;;;4.53;0.95;;;;;;;;;;1855319;77;26247;-60
2022/09/24 08:05:34;;;;;;;2.87;1.10;;;;;;;;;;1856572;76;26267;-55
2022/09/24 08:08:02;;;;;;;3.67;0.80;;;;;;;;;;1856291;76;26274;-61
2022/09/24 08:10:29;;;;;;;5.22;1.00;;;;;;;;;;1860080;77;26333;-60
2022/09/24 08:12:58;;;;;;;3.45;0.70;;;;;;;;;;1858120;77;26250;-59
2022/09/24 08:15:25;;;;;;;1.80;0.80;;;;;;;;;;1858696;75;26290;-60
2022/09/24 08:17:52;;;;;;;1.37;0.70;;;;;;;;;;1860538;77;26826;-56
2022/09/24 08:20:22;;;;;;;0.93;0.90;;;;;;;;;;1854851;77;26679;-58
2022/09/24 08:22:48;;;;;;;1.47;0.80;;;;;;;;;;1857651;76;26365;-59
2022/09/24 08:25:16;;;;;;;0.65;0.65;;;;;;;;;;1856337;77;26379;-57
2022/09/24 08:27:43;;;;;;;1.37;0.75;;;;;;;;;;1852204;77;26295;-59
2022/09/24 08:30:11;;;;;;;1.65;0.70;;;;;;;;;;1842305;77;26249;-56
2022/09/24 08:32:38;;;;;;;3.17;0.90;;;;;;;;;;1842108;77;26268;-58
2022/09/24 08:35:07;;;;;;;0.68;0.68;;;;;;;;;;1842014;77;26778;-57
2022/09/24 08:37:34;;;;;;;0.88;0.70;;;;;;;;;;1842271;77;26257;-57
2022/09/24 08:40:02;;;;;;;4.15;0.80;;;;;;;;;;1845790;77;26323;-59
2022/09/24 08:42:50;;;;;;;1.65;0.93;;;;;;;;;;1853889;77;26321;-56
2022/09/24 08:48:12;;;;;;;0.68;0.68;;;;;;;;;;1852170;77;26323;-55
2022/09/24 08:50:41;;;;;;;2.58;0.78;;;;;;;;;;1850182;77;26267;-58
2022/09/24 08:53:20;;;;;;;1.47;0.80;;;;;;;;;;1828658;76;26291;-57
2022/09/24 08:55:48;;;;;;;1.32;1.17;;;;;;;;;;1813979;77;26313;-56
2022/09/24 08:58:34;;;;;;;0.70;0.70;;;;;;;;;;1807262;77;26270;-57
2022/09/24 09:01:11;;;;;;;1.00;0.65;;;;;;;;;;1816340;78;26263;-55
2022/09/24 09:03:40;;;;;;;0.93;0.85;;;;;;;;;;1809191;78;26340;-59
2022/09/24 09:06:11;;;;;;;0.50;0.50;;;;;;;;;;1821476;78;26283;-56
2022/09/24 09:08:40;;;;;;;1.85;0.53;;;;;;;;;;1819426;77;26599;-60
2022/09/24 09:11:09;;;;;;;1.40;0.57;;;;;;;;;;1812224;78;26247;-56
2022/09/24 09:13:38;;;;;;;0.78;0.70;;;;;;;;;;1815034;78;26251;-61
2022/09/24 09:16:07;;;;;;;0.60;0.60;;;;;;;;;;1819147;77;26271;-56
2022/09/24 09:18:38;;;;;;;0.60;0.60;;;;;;;;;;1826883;77;26278;-57
2022/09/24 09:21:07;;;;;;;0.62;0.62;;;;;;;;;;1827249;77;26281;-54
2022/09/24 09:23:39;;;;;;;0.70;0.70;;;;;;;;;;1823822;77;26258;-58
2022/09/24 09:26:08;;;;;;;5.83;0.70;;;;;;;;;;1805530;77;26322;-58
2022/09/24 09:28:35;;;;;;;0.70;0.70;;;;;;;;;;1800266;79;26262;-58
2022/09/24 09:31:22;;;;;;;0.70;0.70;;;;;;;;;;1799444;79;26738;-55
2022/09/24 09:33:59;;;;;;;0.60;0.60;;;;;;;;;;1800165;79;26321;-59
2022/09/24 09:36:44;;;;;;;0.60;0.60;;;;;;;;;;1809625;78;26794;-58
2022/09/24 09:39:22;;;;;;;0.53;0.53;;;;;;;;;;1784761;79;26286;-58
2022/09/24 09:41:54;;;;;;;0.68;0.60;;;;;;;;;;1777086;78;26275;-59
2022/09/24 09:44:24;;;;;;;0.68;0.68;;;;;;;;;;1824300;77;26255;-57
2022/09/24 09:46:53;;;;;;;0.60;0.60;;;;;;;;;;1816024;78;26355;-61
2022/09/24 09:49:21;;;;;;;0.70;0.70;;;;;;;;;;1825281;77;26715;-57
2022/09/24 09:51:49;;;;;;;0.60;0.60;;;;;;;;;;1812161;77;26383;-57
2022/09/24 09:54:16;;;;;;;0.60;0.60;;;;;;;;;;1836626;78;26291;-56
2022/09/24 09:56:45;;;;;;;0.60;0.60;;;;;;;;;;1837722;78;26216;-59
2022/09/24 09:59:14;;;;;;;0.75;0.60;;;;;;;;;;1811892;77;26751;-59
2022/09/24 10:01:42;;;;;;;0.60;0.60;;;;;;;;;;1824764;78;26700;-60
2022/09/24 10:04:20;;;;;;;0.60;0.60;;;;;;;;;;1831398;78;26275;-58
2022/09/24 10:06:47;;;;;;;0.70;0.70;;;;;;;;;;1833421;77;26283;-57
2022/09/24 10:09:15;;;;;;;0.50;0.50;;;;;;;;;;1832145;77;26341;-59
2022/09/24 10:11:43;;;;;;;0.50;0.45;;;;;;;;;;1774586;79;26298;-57
2022/09/24 10:14:11;;;;;;;0.70;0.70;;;;;;;;;;1836867;78;26320;-59
2022/09/24 10:16:39;;;;;;;0.50;0.50;;;;;;;;;;1834769;78;26690;-58
2022/09/24 10:19:17;;;;;;;0.60;0.60;;;;;;;;;;1817768;77;26263;-57
2022/09/24 10:21:45;;;;;;;0.50;0.50;;;;;;;;;;1837666;78;27392;-59
2022/09/24 10:24:15;;;;;;;0.60;0.60;;;;;;;;;;1837585;77;26240;-54
2022/09/24 10:26:43;;;;;;;0.70;0.70;;;;;;;;;;1825241;77;26745;-55
2022/09/24 10:32:08;;;;;;;0.60;0.60;;;;;;;;;;1845852;77;26382;-61
2022/09/24 10:34:35;;;;;;;1.27;0.57;;;;;;;;;;1844136;77;26315;-57
2022/09/24 10:37:04;;;;;;;0.53;0.53;;;;;;;;;;1827920;77;26290;-55
2022/09/24 10:39:31;;;;;;;0.62;0.62;;;;;;;;;;1829598;77;26271;-54
2022/09/24 10:41:58;;;;;;;0.50;0.50;;;;;;;;;;1830943;77;26549;-59
2022/09/24 10:44:30;;;;;;;0.60;0.60;;;;;;;;;;1834045;78;26344;-55
2022/09/24 10:47:13;;;;;;;0.60;0.60;;;;;;;;;;1828231;78;26936;-58
2022/09/24 10:49:42;;;;;;;0.47;0.47;;;;;;;;;;1809812;77;26287;-59
2022/09/24 10:52:21;;;;;;;0.57;0.57;;;;;;;;;;1816716;78;26325;-56
2022/09/24 10:54:50;;;;;;;0.60;0.60;;;;;;;;;;1855869;77;26794;-60
2022/09/24 10:57:19;;;;;;;0.60;0.60;;;;;;;;;;1835561;76;26696;-59
2022/09/24 10:59:53;;;;;;;0.50;0.50;;;;;;;;;;1829594;77;26267;-59
2022/09/24 11:02:26;;;;;;;0.60;0.60;;;;;;;;;;1829624;76;27423;-61
2022/09/24 11:04:57;;;;;;;0.60;0.60;;;;;;;;;;1838478;76;26375;-60
2022/09/24 11:07:26;;;;;;;0.60;0.60;;;;;;;;;;1847191;76;26333;-60
2022/09/24 11:10:01;;;;;;;0.60;0.60;;;;;;;;;;1830925;77;26318;-58
2022/09/24 11:12:30;;;;;;;0.70;0.70;;;;;;;;;;1835085;76;26793;-58
2022/09/24 11:15:04;;;;;;;0.60;0.60;;;;;;;;;;1830845;77;27517;-56
2022/09/24 11:17:36;;;;;;;0.72;0.72;;;;;;;;;;1836325;77;26248;-57
2022/09/24 11:20:05;;;;;;;0.70;0.70;;;;;;;;;;1827888;77;26666;-59
2022/09/24 11:22:36;;;;;;;0.70;0.70;;;;;;;;;;1830503;77;26279;-56
2022/09/24 11:25:17;;;;;;;0.80;0.80;;;;;;;;;;1850708;76;26308;-61
2022/09/24 11:27:49;;;;;;;0.70;0.70;;;;;;;;;;1843502;76;26242;-58
2022/09/24 11:30:21;;;;;;;1.75;0.65;;;;;;;;;;1838576;76;26254;-63
2022/09/24 11:33:00;;;;;;;0.60;0.60;;;;;;;;;;1834775;76;27435;-60
2022/09/24 11:35:28;;;;;;;0.80;0.80;;;;;;;;;;1834595;76;26377;-55
2022/09/24 11:38:00;;;;;;;0.60;0.60;;;;;;;;;;1834793;76;26286;-55
2022/09/24 11:40:38;;;;;;;0.72;0.72;;;;;;;;;;1830830;77;27287;-58
2022/09/24 11:43:08;;;;;;;1.62;0.90;;;;;;;;;;1832024;75;26259;-58
2022/09/24 11:45:46;;;;;;;0.70;0.70;;;;;;;;;;1800746;77;26283;-59
2022/09/24 11:48:21;;;;;;;1.35;0.70;;;;;;;;;;1833130;76;27444;-60
2022/09/24 11:50:50;;;;;;;0.80;0.80;;;;;;;;;;1835225;76;25656;-61
2022/09/24 11:53:35;;;;;;;0.70;0.70;;;;;;;;;;1851303;76;26846;-60
2022/09/24 11:56:16;;;;;;;1.77;0.88;;;;;;;;;;1846110;76;26317;-60
2022/09/24 11:58:48;;;;;;;1.02;0.90;;;;;;;;;;1794106;77;26253;-56
2022/09/24 12:01:17;;;;;;;0.88;0.88;;;;;;;;;;1845634;76;26314;-59
2022/09/24 12:03:46;;;;;;;0.80;0.80;;;;;;;;;;1835265;76;25846;-57
2022/09/24 12:06:14;;;;;;;1.45;0.90;;;;;;;;;;1828856;76;26843;-53
2022/09/24 12:08:55;;;;;;;3.67;1.05;;;;;;;;;;1867386;76;26243;-55
2022/09/24 12:11:30;;;;;;;7.33;0.90;;;;;;;;;;1838570;75;26316;-56
2022/09/24 12:14:08;;;;;;;0.70;0.70;;;;;;;;;;1837470;76;26259;-60
2022/09/24 12:16:37;;;;;;;1.65;0.80;;;;;;;;;;1860924;76;26261;-61
2022/09/24 12:19:12;;;;;;;0.90;0.90;;;;;;;;;;1854654;76;26243;-60
2022/09/24 12:21:42;;;;;;;3.70;0.98;;;;;;;;;;1817448;77;27584;-60
2022/09/24 12:24:14;;;;;;;1.12;0.90;;;;;;;;;;1860451;76;26248;-56
2022/09/24 12:26:42;;;;;;;0.98;0.98;;;;;;;;;;1859435;76;26281;-61
2022/09/24 12:35:06;;;;;;;0.82;0.80;;;;;;;;;;1853082;77;26282;-56
2022/09/24 12:37:37;;;;;;;0.90;0.90;;;;;;;;;;1840553;76;26248;-52
2022/09/24 12:40:21;;;;;;;1.00;1.00;;;;;;;;;;1850129;76;26285;-53
2022/09/24 12:42:50;;;;;;;0.93;0.93;;;;;;;;;;1852280;77;26610;-60
2022/09/24 12:45:19;;;;;;;1.52;1.00;;;;;;;;;;1862931;76;26312;-60
2022/09/24 12:47:47;;;;;;;1.00;1.00;;;;;;;;;;1849022;76;26289;-60
2022/09/24 12:50:19;;;;;;;1.10;1.10;;;;;;;;;;1857367;76;26235;-54
2022/09/24 12:52:46;;;;;;;0.98;0.98;;;;;;;;;;1847811;77;26249;-55
2022/09/24 12:55:20;;;;;;;3.87;1.10;;;;;;;;;;1844336;76;26714;-59
2022/09/24 12:57:52;;;;;;;4.00;1.40;;;;;;;;;;1844208;76;26252;-54
2022/09/24 13:00:33;;;;;;;1.65;1.20;;;;;;;;;;1853770;76;26248;-53
2022/09/24 13:03:01;;;;;;;8.33;1.65;;;;;;;;;;1849357;77;27284;-55
2022/09/24 13:05:30;;;;;;;1.20;1.05;;;;;;;;;;1880593;75;26734;-60
2022/09/24 13:08:02;;;;;;;1.50;1.20;;;;;;;;;;1862307;75;26627;-53
2022/09/24 13:10:30;;;;;;;5.10;1.40;;;;;;;;;;1869948;75;26234;-56
2022/09/24 13:12:59;;;;;;;3.15;1.15;;;;;;;;;;1871799;76;26645;-53
2022/09/24 13:15:27;;;;;;;4.22;1.30;;;;;;;;;;1868177;75;26906;-56
2022/09/24 13:18:03;;;;;;;14.90;1.55;;;;;;;;;;1864779;75;27287;-57
2022/09/24 13:20:31;;;;;;;5.28;1.12;;;;;;;;;;1859816;75;27738;-59
2022/09/24 13:23:02;;;;;;;4.60;1.15;;;;;;;;;;1870151;75;26257;-58
2022/09/24 13:25:30;;;;;;;1.37;1.22;;;;;;;;;;1846454;75;26779;-56
2022/09/24 13:28:01;;;;;;;1.25;1.10;;;;;;;;;;1850762;76;26738;-57
2022/09/24 13:30:30;;;;;;;1.30;1.15;;;;;;;;;;1850618;76;26592;-59
2022/09/24 13:32:59;;;;;;;2.17;1.40;;;;;;;;;;1861432;75;26355;-57
2022/09/24 13:35:28;;;;;;;2.37;1.40;;;;;;;;;;1863725;75;26200;-54
2022/09/24 13:38:13;;;;;;;3.98;1.42;;;;;;;;;;1864505;75;26242;-59
2022/09/24 13:40:42;;;;;;;1.85;1.40;;;;;;;;;;1871330;75;26258;-60
2022/09/24 13:43:14;;;;;;;3.22;1.27;;;;;;;;;;1871236;75;26273;-58
2022/09/24 13:45:44;;;;;;;1.77;1.50;;;;;;;;;;1855581;76;26306;-57
2022/09/24 13:48:30;;;;;;;5.05;1.40;;;;;;;;;;1853627;76;27389;-56
2022/09/24 13:50:59;;;;;;;4.33;1.50;;;;;;;;;;1858127;76;26303;-58
2022/09/24 13:53:34;;;;;;;4.80;1.47;;;;;;;;;;1856695;76;26290;-51
2022/09/24 13:56:03;;;;;;;4.03;1.50;;;;;;;;;;1864114;76;26386;-53
2022/09/24 13:58:34;;;;;;;2.47;1.32;;;;;;;;;;1862276;76;26375;-57
2022/09/24 14:01:03;;;;;;;3.72;1.57;;;;;;;;;;1860881;77;26728;-58
2022/09/24 14:03:34;;;;;;;2.15;1.50;;;;;;;;;;1861476;77;26189;-53
2022/09/24 14:06:03;;;;;;;1.85;1.40;;;;;;;;;;1861049;76;26290;-59
2022/09/24 14:08:30;;;;;;;1.82;1.60;;;;;;;;;;1854358;76;26362;-60
2022/09/24 14:11:07;;;;;;;1.67;1.57;;;;;;;;;;1840122;77;26353;-58
2022/09/24 14:13:40;;;;;;;2.95;1.50;;;;;;;;;;1844685;77;26317;-57
2022/09/24 14:16:08;;;;;;;2.30;1.45;;;;;;;;;;1861749;76;26328;-60
2022/09/24 14:18:40;;;;;;;1.62;1.52;;;;;;;;;;1863920;76;26328;-59
2022/09/24 14:21:06;;;;;;;2.25;1.40;;;;;;;;;;1845125;75;26344;-60
2022/09/24 14:23:35;;;;;;;2.58;1.70;;;;;;;;;;1855304;75;26790;-60
2022/09/24 14:26:03;;;;;;;4.72;1.72;;;;;;;;;;1849119;76;26270;-59
2022/09/24 14:28:31;;;;;;;4.08;1.60;;;;;;;;;;1858218;75;26877;-59
2022/09/24 14:30:59;;;;;;;2.27;1.60;;;;;;;;;;1859756;75;25796;-59
2022/09/24 14:33:28;;;;;;;1.77;1.50;;;;;;;;;;1848405;77;26242;-59
2022/09/24 14:35:57;;;;;;;1.72;1.62;;;;;;;;;;1852341;75;26262;-59
2022/09/24 14:38:28;;;;;;;3.37;1.52;;;;;;;;;;1853260;75;26266;-59
2022/09/24 14:40:57;;;;;;;3.62;1.62;;;;;;;;;;1851294;76;26302;-64
2022/09/24 14:43:30;;;;;;;2.15;1.70;;;;;;;;;;1852167;77;26298;-61
2022/09/24 14:46:06;;;;;;;1.57;1.57;;;;;;;;;;1848618;77;26321;-61
2022/09/24 14:48:33;;;;;;;2.83;1.72;;;;;;;;;;1846722;76;26278;-62
2022/09/24 14:51:01;;;;;;;2.25;1.80;;;;;;;;;;1848647;77;26254;-61
2022/09/24 14:53:36;;;;;;;3.35;1.67;;;;;;;;;;1850580;77;26309;-63
2022/09/24 14:56:23;;;;;;;2.77;1.40;;;;;;;;;;1850420;76;26572;-61
2022/09/24 14:58:50;;;;;;;2.05;1.60;;;;;;;;;;1851860;76;26317;-60
2022/09/24 15:01:19;;;;;;;1.52;1.52;;;;;;;;;;1851913;76;26735;-61
2022/09/24 15:03:51;;;;;;;2.17;1.60;;;;;;;;;;1847892;76;26316;-61
2022/09/24 15:06:25;;;;;;;1.60;1.60;;;;;;;;;;1848537;76;26203;-56
2022/09/24 15:08:57;;;;;;;1.65;1.40;;;;;;;;;;1842833;76;26246;-60
2022/09/24 15:11:29;;;;;;;2.60;1.60;;;;;;;;;;1844309;76;26250;-60
2022/09/24 15:14:00;;;;;;;1.92;1.62;;;;;;;;;;1841903;75;26829;-63